Time;durP1;ratioP1;P1;durP2;ratioP2;P2;SDS_P1;SDS_P2;PMS_P1;PMS_P2;Temp;Humidity;BMP_temperature;BMP_pressure;BME280_temperature;BME280_humidity;BME280_pressure;Samples;Min_cycle;Max_cycle;Signal;HPM_P1;HPM_P2
2022/04/10 00:01:56;;;;;;;9.52;5.93;;;6.00;1.00;;;;;;4973557;28;20043;-83
2022/04/10 00:04:23;;;;;;;6.18;5.13;;;6.20;1.00;;;;;;4973749;28;20023;-83
2022/04/10 00:06:48;;;;;;;8.32;5.82;;;6.10;1.00;;;;;;4973735;28;20022;-83
2022/04/10 00:09:14;;;;;;;6.97;5.90;;;5.90;1.00;;;;;;4973423;28;20066;-82
2022/04/10 00:11:40;;;;;;;8.25;5.68;;;5.70;1.00;;;;;;4973096;28;20029;-82
2022/04/10 00:14:06;;;;;;;6.93;5.47;;;5.90;1.00;;;;;;4973861;28;20051;-82
2022/04/10 00:16:32;;;;;;;7.95;6.00;;;6.00;1.00;;;;;;4973947;28;20484;-83
2022/04/10 00:19:04;;;;;;;7.05;5.55;;;6.00;1.00;;;;;;4973543;28;20046;-82
2022/04/10 00:21:33;;;;;;;6.85;5.82;;;6.20;1.00;;;;;;4973288;28;20050;-83
2022/04/10 00:23:59;;;;;;;7.00;5.93;;;6.00;1.00;;;;;;4973024;28;20125;-83
2022/04/10 00:26:25;;;;;;;8.05;5.78;;;5.90;1.00;;;;;;4972800;28;20451;-83
2022/04/10 00:28:56;;;;;;;8.20;5.93;;;5.70;1.00;;;;;;4973841;28;20321;-83
2022/04/10 00:31:22;;;;;;;7.35;5.45;;;5.80;1.00;;;;;;4973255;28;20031;-83
2022/04/10 00:33:48;;;;;;;6.90;5.53;;;5.40;1.00;;;;;;4973048;28;20117;-83
2022/04/10 00:36:13;;;;;;;7.40;5.47;;;5.50;1.00;;;;;;4973027;28;20029;-83
2022/04/10 00:38:40;;;;;;;7.45;5.32;;;5.20;1.00;;;;;;4973076;28;20022;-83
2022/04/10 00:41:06;;;;;;;9.30;5.57;;;5.10;1.00;;;;;;4972398;28;20109;-83
2022/04/10 00:43:34;;;;;;;8.35;5.35;;;5.30;1.00;;;;;;4973602;28;20030;-83
2022/04/10 00:46:00;;;;;;;6.50;5.72;;;5.60;1.00;;;;;;4972718;28;20031;-83
2022/04/10 00:48:26;;;;;;;7.05;5.35;;;5.60;1.00;;;;;;4972665;28;20031;-83
2022/04/10 00:53:37;;;;;;;7.13;5.30;;;5.50;1.00;;;;;;4973217;28;20050;-82
2022/04/10 00:56:04;;;;;;;6.28;5.18;;;5.50;1.00;;;;;;4972140;28;20031;-83
2022/04/10 00:58:31;;;;;;;7.07;5.13;;;5.20;1.00;;;;;;4973566;28;20080;-82
2022/04/10 01:00:56;;;;;;;5.97;5.30;;;5.00;1.00;;;;;;4972887;28;20031;-83
2022/04/10 01:03:22;;;;;;;5.75;5.00;;;5.50;1.00;;;;;;4972133;28;20042;-83
2022/04/10 01:05:48;;;;;;;6.45;5.60;;;5.40;1.00;;;;;;4972148;28;20023;-83
2022/04/10 01:08:15;;;;;;;8.18;6.00;;;5.60;1.00;;;;;;4957253;28;20035;-83
2022/04/10 01:10:42;;;;;;;6.40;5.55;;;5.40;1.00;;;;;;4973060;28;20027;-83
2022/04/10 01:13:08;;;;;;;6.90;5.75;;;5.40;1.00;;;;;;4972182;28;20491;-83
2022/04/10 01:15:35;;;;;;;6.07;5.47;;;5.50;1.00;;;;;;4972341;28;20077;-83
2022/04/10 01:18:01;;;;;;;6.97;5.88;;;5.50;1.00;;;;;;4972590;28;20031;-83
2022/04/10 01:20:27;;;;;;;8.43;5.38;;;5.50;1.00;;;;;;4972231;28;20038;-83
2022/04/10 01:22:54;;;;;;;6.88;5.57;;;5.40;1.00;;;;;;4972619;28;20480;-83
2022/04/10 01:25:19;;;;;;;7.47;5.45;;;5.20;1.00;;;;;;4972416;28;20043;-83
2022/04/10 01:27:45;;;;;;;7.18;5.82;;;5.10;1.00;;;;;;4972413;28;20037;-83
2022/04/10 01:30:12;;;;;;;8.10;5.50;;;5.00;1.00;;;;;;4972314;28;20031;-83
2022/04/10 01:32:38;;;;;;;5.45;4.90;;;5.00;1.00;;;;;;4972180;28;20035;-83
2022/04/10 01:35:05;;;;;;;6.22;5.15;;;5.30;1.00;;;;;;4971814;28;20043;-83
2022/04/10 01:37:35;;;;;;;5.65;4.90;;;5.20;1.00;;;;;;4973301;28;20030;-83
2022/04/10 01:40:02;;;;;;;6.90;5.60;;;5.10;1.00;;;;;;4971238;28;20086;-83
2022/04/10 01:42:28;;;;;;;5.35;4.85;;;5.10;1.00;;;;;;4932524;29;20521;-83
2022/04/10 01:44:53;;;;;;;8.27;5.78;;;5.30;1.00;;;;;;4932781;29;20031;-83
2022/04/10 01:47:19;;;;;;;6.90;5.30;;;5.10;1.00;;;;;;4932277;29;20024;-83
2022/04/10 01:49:45;;;;;;;7.38;6.18;;;5.30;1.00;;;;;;4934309;29;20032;-83
2022/04/10 01:52:10;;;;;;;6.60;5.85;;;5.10;1.00;;;;;;4931469;29;20073;-83
2022/04/10 01:54:36;;;;;;;7.40;5.90;;;5.20;1.00;;;;;;4931596;29;20083;-83
2022/04/10 01:57:02;;;;;;;6.22;5.50;;;5.10;1.00;;;;;;4932127;29;20042;-83
2022/04/10 01:59:31;;;;;;;8.13;6.13;;;5.10;1.00;;;;;;4932635;29;20087;-83
2022/04/10 02:01:58;;;;;;;8.15;5.68;;;5.10;1.00;;;;;;4932851;29;20579;-83
2022/04/10 02:04:23;;;;;;;6.68;5.65;;;4.90;1.00;;;;;;4933813;29;20071;-83
2022/04/10 02:06:49;;;;;;;6.13;5.47;;;4.70;1.00;;;;;;4931961;29;20429;-83
2022/04/10 02:09:15;;;;;;;6.78;5.10;;;4.60;1.00;;;;;;4930680;29;20040;-83
2022/04/10 02:11:40;;;;;;;7.10;4.82;;;4.80;1.00;;;;;;4931067;29;20024;-83
2022/04/10 02:14:06;;;;;;;6.63;4.95;;;4.80;1.00;;;;;;4931054;29;20403;-83
2022/04/10 02:16:32;;;;;;;6.88;5.05;;;4.80;1.00;;;;;;4937055;29;20657;-83
2022/04/10 02:18:57;;;;;;;6.65;5.38;;;4.80;1.00;;;;;;4935626;29;20039;-83
2022/04/10 02:21:23;;;;;;;7.30;5.20;;;5.10;1.00;;;;;;4935871;29;20040;-83
2022/04/10 02:23:49;;;;;;;7.55;5.30;;;4.90;1.00;;;;;;4935580;29;20039;-83
2022/04/10 02:26:14;;;;;;;6.10;4.95;;;4.60;1.00;;;;;;4935643;29;20118;-83
2022/04/10 02:28:41;;;;;;;7.18;5.10;;;4.80;1.00;;;;;;4937529;29;20020;-83
2022/04/10 02:31:07;;;;;;;7.22;5.10;;;4.50;1.00;;;;;;4935254;29;20031;-83
2022/04/10 02:33:33;;;;;;;5.70;4.57;;;4.70;1.00;;;;;;4935753;29;20031;-83
2022/04/10 02:36:02;;;;;;;6.45;4.93;;;4.50;1.00;;;;;;4935334;29;20038;-83
2022/04/10 02:38:28;;;;;;;6.70;5.05;;;4.20;1.00;;;;;;4935098;29;20043;-83
2022/04/10 02:40:53;;;;;;;6.65;5.40;;;4.00;1.00;;;;;;4950579;28;20094;-83
2022/04/10 02:43:19;;;;;;;7.43;5.50;;;4.40;1.00;;;;;;4975986;28;20957;-83
2022/04/10 02:45:45;;;;;;;7.78;5.35;;;4.20;1.00;;;;;;4974756;28;20026;-83
2022/04/10 02:48:11;;;;;;;6.10;4.90;;;4.20;1.00;;;;;;4975511;28;20027;-83
2022/04/10 02:50:38;;;;;;;5.28;4.78;;;4.20;1.00;;;;;;4975227;28;20503;-83
2022/04/10 02:53:04;;;;;;;8.80;5.15;;;4.50;1.00;;;;;;4974519;28;20035;-83
2022/04/10 02:55:30;;;;;;;7.38;5.60;;;4.50;1.00;;;;;;4975630;28;20450;-83
2022/04/10 02:57:55;;;;;;;6.90;5.18;;;4.40;1.00;;;;;;4974634;28;20428;-82
2022/04/10 03:00:21;;;;;;;5.85;5.25;;;4.20;1.00;;;;;;4974876;28;20034;-83
2022/04/10 03:02:47;;;;;;;6.03;4.97;;;4.10;1.00;;;;;;4975183;28;20022;-83
2022/04/10 03:05:15;;;;;;;6.25;4.88;;;4.20;1.00;;;;;;4959205;28;20082;-83
2022/04/10 03:07:40;;;;;;;6.35;4.90;;;4.20;1.00;;;;;;4971146;28;20376;-82
2022/04/10 03:10:07;;;;;;;5.65;4.72;;;4.00;1.00;;;;;;4974724;28;20026;-83
2022/04/10 03:12:32;;;;;;;6.18;5.20;;;3.80;1.00;;;;;;4974840;28;20166;-83
2022/04/10 03:14:58;;;;;;;5.63;4.82;;;3.80;1.00;;;;;;4974204;28;20121;-83
2022/04/10 03:17:24;;;;;;;7.25;4.95;;;3.70;1.00;;;;;;4974903;28;20023;-83
2022/04/10 03:19:49;;;;;;;6.95;5.57;;;3.60;1.00;;;;;;4974253;28;20037;-83
2022/04/10 03:22:15;;;;;;;6.82;5.63;;;3.80;1.00;;;;;;4975137;28;20488;-83
2022/04/10 03:24:41;;;;;;;8.23;5.97;;;4.00;1.00;;;;;;4974248;28;20062;-83
2022/04/10 03:27:06;;;;;;;7.10;5.80;;;4.00;1.00;;;;;;4973837;28;20484;-83
2022/04/10 03:29:32;;;;;;;7.15;5.95;;;4.30;1.00;;;;;;4974697;28;20492;-83
2022/04/10 03:31:57;;;;;;;8.18;5.32;;;4.10;1.00;;;;;;4974391;28;20043;-83
2022/04/10 03:34:23;;;;;;;7.32;5.50;;;3.80;1.00;;;;;;4974229;28;20543;-83
2022/04/10 03:36:49;;;;;;;6.53;5.40;;;3.70;1.00;;;;;;4974058;28;20011;-83
2022/04/10 03:39:14;;;;;;;7.18;5.28;;;4.10;1.00;;;;;;4974476;28;20077;-83
2022/04/10 03:41:40;;;;;;;6.70;5.30;;;4.00;1.00;;;;;;4973847;28;20047;-83
2022/04/10 03:44:06;;;;;;;5.70;4.90;;;4.40;1.00;;;;;;4956785;28;20041;-83
2022/04/10 03:46:32;;;;;;;6.80;4.93;;;4.00;1.00;;;;;;4974944;28;20125;-83
2022/04/10 03:48:57;;;;;;;6.20;5.30;;;3.80;1.00;;;;;;4973370;28;20102;-83
2022/04/10 03:51:23;;;;;;;5.90;5.05;;;3.80;1.00;;;;;;4973825;28;20035;-83
2022/04/10 03:53:49;;;;;;;7.07;5.40;;;4.10;1.00;;;;;;4956197;28;20035;-83
2022/04/10 03:56:14;;;;;;;6.95;4.85;;;3.80;1.00;;;;;;4974386;28;20033;-83
2022/04/10 03:58:40;;;;;;;7.07;5.15;;;3.90;1.00;;;;;;4974733;28;20027;-83
2022/04/10 04:01:05;;;;;;;6.55;5.57;;;4.00;1.00;;;;;;4973871;28;20031;-83
2022/04/10 04:03:31;;;;;;;6.43;5.60;;;4.00;1.00;;;;;;4973221;28;20023;-83
2022/04/10 04:05:57;;;;;;;7.57;5.40;;;3.60;1.00;;;;;;4974462;28;20114;-83
2022/04/10 04:08:23;;;;;;;6.40;5.55;;;3.50;1.00;;;;;;4956183;28;20571;-82
2022/04/10 04:10:48;;;;;;;6.03;5.40;;;3.60;1.00;;;;;;4973814;28;20153;-83
2022/04/10 04:13:14;;;;;;;7.60;5.35;;;3.60;1.00;;;;;;4973733;28;20338;-83
2022/04/10 04:15:40;;;;;;;6.43;5.68;;;3.50;1.00;;;;;;4973630;28;20066;-82
2022/04/10 04:18:06;;;;;;;8.82;6.00;;;3.70;1.00;;;;;;4972860;28;20034;-83
2022/04/10 04:20:31;;;;;;;7.53;5.82;;;3.70;1.00;;;;;;4973697;28;20061;-83
2022/04/10 04:22:57;;;;;;;6.45;5.65;;;3.70;1.00;;;;;;4973820;28;20034;-83
2022/04/10 04:25:22;;;;;;;7.80;5.32;;;3.80;1.00;;;;;;4974049;28;20392;-83
2022/04/10 04:27:48;;;;;;;7.45;6.03;;;3.80;1.00;;;;;;4972916;28;20018;-82
2022/04/10 04:30:14;;;;;;;9.05;6.10;;;3.30;1.00;;;;;;4973150;28;20039;-83
2022/04/10 04:32:39;;;;;;;7.28;6.32;;;3.40;1.00;;;;;;4972914;28;20105;-83
2022/04/10 04:35:06;;;;;;;6.78;5.80;;;3.50;1.00;;;;;;4973244;28;20159;-82
2022/04/10 04:37:32;;;;;;;8.35;6.50;;;3.80;1.00;;;;;;4973441;28;20109;-83
2022/04/10 04:39:57;;;;;;;8.40;5.70;;;3.80;1.00;;;;;;4972010;28;20154;-84
2022/04/10 04:42:23;;;;;;;8.65;6.43;;;3.70;1.00;;;;;;4972810;28;20074;-83
2022/04/10 04:44:49;;;;;;;7.20;5.68;;;3.70;1.00;;;;;;4973427;28;20026;-83
2022/04/10 04:47:14;;;;;;;8.73;6.30;;;3.60;1.00;;;;;;4972642;28;20027;-83
2022/04/10 04:49:40;;;;;;;6.85;6.00;;;3.80;1.00;;;;;;4973802;28;20122;-83
2022/04/10 04:52:06;;;;;;;7.25;6.22;;;3.70;1.00;;;;;;4972747;28;20030;-83
2022/04/10 04:54:31;;;;;;;8.38;5.93;;;3.70;1.00;;;;;;4972419;28;20034;-83
2022/04/10 04:56:57;;;;;;;7.68;5.82;;;3.80;1.00;;;;;;4972988;28;20093;-83
2022/04/10 04:59:23;;;;;;;8.75;5.85;;;3.60;1.00;;;;;;4972164;28;20507;-83
2022/04/10 05:01:48;;;;;;;8.88;5.53;;;3.70;1.00;;;;;;4972268;28;20101;-83
2022/04/10 05:04:14;;;;;;;6.95;6.13;;;3.70;1.00;;;;;;4972413;28;20126;-83
2022/04/10 05:06:39;;;;;;;6.30;5.63;;;4.00;1.00;;;;;;4972097;28;20081;-83
2022/04/10 05:09:05;;;;;;;7.30;5.85;;;4.00;1.00;;;;;;4955478;28;20034;-82
2022/04/10 05:11:31;;;;;;;7.18;5.50;;;4.00;1.00;;;;;;4971931;28;20038;-83
2022/04/10 05:13:57;;;;;;;8.10;5.97;;;3.90;1.00;;;;;;4972641;28;20030;-83
2022/04/10 05:16:23;;;;;;;7.30;5.43;;;3.80;1.00;;;;;;4972403;28;20037;-83
2022/04/10 05:18:49;;;;;;;8.27;5.45;;;3.90;1.00;;;;;;4971810;28;20069;-82
2022/04/10 05:21:15;;;;;;;6.43;5.47;;;3.70;1.00;;;;;;4972302;28;20057;-83
2022/04/10 05:23:41;;;;;;;5.18;4.63;;;3.60;1.00;;;;;;4971823;28;20488;-83
2022/04/10 05:26:07;;;;;;;5.53;4.97;;;3.60;1.00;;;;;;4972142;28;20042;-81
2022/04/10 05:28:34;;;;;;;6.43;5.20;;;3.60;1.00;;;;;;4973299;28;20041;-82
2022/04/10 05:31:03;;;;;;;7.20;5.18;;;3.50;1.00;;;;;;4972046;28;20070;-81
2022/04/10 05:33:32;;;;;;;7.28;4.55;;;3.60;1.00;;;;;;4972023;28;20045;-81
2022/04/10 05:35:57;;;;;;;5.35;4.80;;;4.00;1.00;;;;;;4971962;28;20391;-82
2022/04/10 05:38:23;;;;;;;6.05;4.70;;;3.70;1.00;;;;;;4972042;28;20035;-82
2022/04/10 05:40:52;;;;;;;5.22;4.30;;;3.60;1.00;;;;;;4972486;28;20046;-81
2022/04/10 05:43:22;;;;;;;5.38;4.65;;;3.80;1.00;;;;;;4972003;28;20046;-81
2022/04/10 05:45:49;;;;;;;5.93;5.00;;;3.60;1.00;;;;;;4968767;28;20113;-84
2022/04/10 05:48:15;;;;;;;7.47;4.95;;;3.70;1.00;;;;;;4971840;28;20061;-84
2022/04/10 05:50:41;;;;;;;7.50;5.47;;;3.80;1.00;;;;;;4973780;28;20373;-84
2022/04/10 05:53:07;;;;;;;11.45;6.65;;;3.60;1.00;;;;;;4976730;28;20070;-84
2022/04/10 05:55:32;;;;;;;11.23;7.40;;;3.60;1.00;;;;;;4976456;28;20070;-84
2022/04/10 05:57:58;;;;;;;11.15;6.88;;;3.90;1.00;;;;;;4975763;28;20027;-85
2022/04/10 06:00:24;;;;;;;11.90;7.78;;;3.70;1.00;;;;;;4974959;28;20026;-85
2022/04/10 06:02:50;;;;;;;20.45;8.40;;;3.80;1.00;;;;;;4976619;28;20110;-84
2022/04/10 06:05:19;;;;;;;17.08;7.68;;;4.00;1.00;;;;;;4976021;28;20109;-83
2022/04/10 06:07:45;;;;;;;9.95;6.72;;;3.80;1.00;;;;;;4976283;28;20054;-84
2022/04/10 06:10:11;;;;;;;11.80;6.53;;;3.90;1.00;;;;;;4976183;28;20074;-84
2022/04/10 06:12:37;;;;;;;20.95;8.07;;;3.90;1.00;;;;;;4975314;28;20061;-85
2022/04/10 06:15:03;;;;;;;32.30;8.50;;;4.20;1.00;;;;;;4974999;28;20503;-84
2022/04/10 06:17:30;;;;;;;37.55;9.30;;;4.10;1.00;;;;;;4976479;28;20021;-85
2022/04/10 06:19:56;;;;;;;30.02;9.10;;;4.10;1.00;;;;;;4975116;28;20046;-84
2022/04/10 06:22:23;;;;;;;45.65;9.77;;;4.00;1.00;;;;;;4976304;28;20027;-85
2022/04/10 06:24:53;;;;;;;43.28;9.38;;;4.10;1.00;;;;;;4974822;28;20476;-85
2022/04/10 06:27:19;;;;;;;21.00;9.48;;;4.10;1.00;;;;;;4975267;28;20031;-85
2022/04/10 06:29:45;;;;;;;25.00;9.43;;;4.30;1.00;;;;;;4975037;28;20027;-85
2022/04/10 06:32:11;;;;;;;48.15;9.73;;;4.10;1.00;;;;;;4975334;28;20403;-85
2022/04/10 06:34:37;;;;;;;21.17;8.88;;;4.20;1.00;;;;;;4976012;28;20039;-86
2022/04/10 06:37:03;;;;;;;29.27;8.77;;;4.10;1.00;;;;;;4975026;28;20495;-85
2022/04/10 06:39:29;;;;;;;25.98;8.77;;;4.10;1.00;;;;;;4975184;28;20038;-85
2022/04/10 06:41:54;;;;;;;30.35;9.02;;;4.10;1.00;;;;;;4975266;28;20443;-86
2022/04/10 06:44:20;;;;;;;21.65;9.13;;;4.10;1.00;;;;;;4974764;28;20039;-85
2022/04/10 06:46:45;;;;;;;18.05;8.70;;;4.20;1.00;;;;;;4975689;28;20033;-86
2022/04/10 06:49:14;;;;;;;40.15;9.32;;;4.10;1.00;;;;;;4975716;28;20105;-86
2022/04/10 06:51:40;;;;;;;41.67;9.77;;;4.20;1.00;;;;;;4974794;28;20030;-85
2022/04/10 06:54:07;;;;;;;36.20;9.40;;;4.20;1.00;;;;;;4974598;28;20067;-86
2022/04/10 06:56:32;;;;;;;22.17;8.68;;;4.20;1.00;;;;;;4975081;28;20534;-86
2022/04/10 06:58:58;;;;;;;21.20;8.30;;;4.10;1.00;;;;;;4974383;28;20027;-86
2022/04/10 07:01:24;;;;;;;27.50;9.18;;;4.20;1.00;;;;;;4974853;28;20484;-86
2022/04/10 07:03:49;;;;;;;31.63;9.98;;;4.20;1.00;;;;;;4974765;28;20033;-85
2022/04/10 07:06:15;;;;;;;31.63;10.85;;;4.20;1.00;;;;;;4974410;28;20035;-86
2022/04/10 07:08:41;;;;;;;34.85;9.02;;;4.30;1.00;;;;;;4974741;28;20511;-86
2022/04/10 07:11:07;;;;;;;24.77;10.80;;;4.40;1.00;;;;;;4974800;28;20038;-86
2022/04/10 07:13:32;;;;;;;26.60;10.43;;;4.60;1.00;;;;;;4974917;28;20606;-86
2022/04/10 07:15:58;;;;;;;14.55;9.07;;;4.80;1.00;;;;;;4974601;28;20527;-86
2022/04/10 07:18:24;;;;;;;14.88;8.93;;;4.80;1.00;;;;;;4974726;28;20030;-85
2022/04/10 07:20:50;;;;;;;16.98;8.60;;;5.00;1.00;;;;;;4975059;28;20108;-86
2022/04/10 07:25:59;;;;;;;17.80;11.07;;;5.70;1.00;;;;;;4972756;28;20101;-86
2022/04/10 07:28:25;;;;;;;14.63;10.10;;;5.50;1.00;;;;;;4974546;28;20476;-86
2022/04/10 07:30:51;;;;;;;20.33;12.68;;;5.80;1.00;;;;;;4974500;28;20038;-85
2022/04/10 07:33:16;;;;;;;15.80;11.27;;;5.70;1.00;;;;;;4973862;28;20764;-86
2022/04/10 07:35:43;;;;;;;12.57;9.48;;;5.60;1.00;;;;;;4973984;28;20034;-85
2022/04/10 07:38:10;;;;;;;12.13;8.85;;;5.70;1.00;;;;;;4974037;28;20169;-86
2022/04/10 07:40:38;;;;;;;10.85;8.68;;;6.00;1.00;;;;;;4957523;28;20393;-85
2022/04/10 07:43:04;;;;;;;12.48;9.70;;;5.90;1.00;;;;;;4973587;28;20031;-85
2022/04/10 07:48:13;;;;;;;14.38;10.02;;;6.20;1.00;;;;;;4973929;28;20034;-86
2022/04/10 07:50:39;;;;;;;14.73;10.82;;;6.20;1.00;;;;;;4974237;28;20027;-85
2022/04/10 07:53:05;;;;;;;15.02;10.38;;;6.40;1.00;;;;;;4974274;28;20439;-86
2022/04/10 07:55:31;;;;;;;13.05;10.18;;;6.50;1.00;;;;;;4974084;28;20110;-85
2022/04/10 07:57:57;;;;;;;13.23;10.32;;;6.50;1.00;;;;;;4973609;28;20031;-85
2022/04/10 08:00:23;;;;;;;12.57;9.73;;;6.50;1.00;;;;;;4973796;28;20034;-85
2022/04/10 08:02:48;;;;;;;12.63;9.80;;;6.40;1.00;;;;;;4974418;28;20513;-86
2022/04/10 08:05:16;;;;;;;12.43;9.35;;;6.40;1.00;;;;;;4957833;28;20027;-85
2022/04/10 08:07:44;;;;;;;10.57;8.90;;;6.70;1.00;;;;;;4969956;28;20399;-85
2022/04/10 08:10:10;;;;;;;11.88;9.45;;;6.60;1.00;;;;;;4973576;28;20034;-85
2022/04/10 08:12:36;;;;;;;11.93;8.73;;;6.70;1.00;;;;;;4973080;28;20034;-85
2022/04/10 08:15:03;;;;;;;10.80;8.73;;;7.00;1.00;;;;;;4973356;28;20046;-85
2022/04/10 08:17:28;;;;;;;9.57;7.32;;;6.70;1.00;;;;;;4973532;28;20408;-85
2022/04/10 08:19:54;;;;;;;10.63;7.97;;;6.90;1.00;;;;;;4973737;28;20027;-85
2022/04/10 08:22:24;;;;;;;9.73;8.00;;;7.20;1.00;;;;;;4974113;28;20022;-86
2022/04/10 08:24:50;;;;;;;11.55;8.50;;;6.80;1.00;;;;;;4972642;28;20027;-85
2022/04/10 08:27:15;;;;;;;8.80;7.50;;;6.80;1.00;;;;;;4973142;28;20026;-85
2022/04/10 08:29:41;;;;;;;11.65;8.80;;;6.70;1.00;;;;;;4973469;28;20053;-85
2022/04/10 08:32:07;;;;;;;9.38;8.32;;;6.60;1.00;;;;;;4955824;28;20558;-85
2022/04/10 08:34:32;;;;;;;9.82;8.07;;;6.70;1.00;;;;;;4973629;28;20038;-85
2022/04/10 08:37:04;;;;;;;10.10;7.85;;;6.90;1.00;;;;;;4972817;28;20057;-85
2022/04/10 08:39:34;;;;;;;10.90;7.90;;;6.90;1.00;;;;;;4973110;28;20558;-85
2022/04/10 08:42:02;;;;;;;7.68;6.18;;;6.80;1.00;;;;;;4972784;28;20051;-85
2022/04/10 08:44:29;;;;;;;7.07;6.13;;;6.70;1.00;;;;;;4972795;28;20031;-85
2022/04/10 08:46:58;;;;;;;9.85;6.50;;;6.80;1.00;;;;;;4973274;28;20377;-85
2022/04/10 08:49:26;;;;;;;8.15;6.50;;;6.90;1.00;;;;;;4973449;28;20302;-85
2022/04/10 08:51:53;;;;;;;7.80;6.88;;;7.10;1.00;;;;;;4972601;28;20098;-85
2022/04/10 08:54:22;;;;;;;8.60;7.00;;;6.90;1.00;;;;;;4972332;28;20073;-85
2022/04/10 08:56:48;;;;;;;11.02;7.35;;;7.10;1.00;;;;;;4972804;28;20551;-85
2022/04/10 08:59:13;;;;;;;8.82;7.72;;;7.10;1.00;;;;;;4973047;28;20045;-85
2022/04/10 09:01:39;;;;;;;7.68;6.88;;;7.30;1.00;;;;;;4973190;28;20114;-85
2022/04/10 09:04:05;;;;;;;8.75;6.72;;;7.10;1.00;;;;;;4972416;28;20118;-85
2022/04/10 09:06:31;;;;;;;6.47;5.47;;;7.20;1.00;;;;;;4972268;28;20035;-84
2022/04/10 09:09:13;;;;;;;6.35;5.20;;;7.40;1.00;;;;;;4972042;28;20026;-85
2022/04/10 09:11:42;;;;;;;5.38;4.80;;;7.30;1.00;;;;;;4972408;28;20027;-85
2022/04/10 09:14:07;;;;;;;6.90;5.10;;;7.60;1.00;;;;;;4972519;28;20130;-85
2022/04/10 09:16:33;;;;;;;5.70;5.15;;;7.70;1.00;;;;;;4973165;28;20489;-85
2022/04/10 09:19:01;;;;;;;6.30;4.68;;;7.50;1.00;;;;;;4972309;28;20510;-85
2022/04/10 09:21:29;;;;;;;3.78;3.42;;;7.70;1.00;;;;;;4972392;28;20027;-85
2022/04/10 09:23:59;;;;;;;5.75;5.18;;;7.90;1.00;;;;;;4971699;28;20125;-85
2022/04/10 09:26:27;;;;;;;6.35;4.75;;;7.80;1.00;;;;;;4971722;28;20504;-85
2022/04/10 09:28:53;;;;;;;5.43;4.05;;;8.20;1.00;;;;;;4972845;28;20034;-85
2022/04/10 09:31:27;;;;;;;5.50;4.22;;;8.00;1.00;;;;;;4971957;28;20113;-86
2022/04/10 09:33:54;;;;;;;5.03;4.10;;;8.10;1.00;;;;;;4972221;28;20066;-85
2022/04/10 09:36:34;;;;;;;4.40;4.00;;;8.20;1.00;;;;;;4971759;28;20435;-85
2022/04/10 09:39:01;;;;;;;8.07;5.05;;;8.30;1.00;;;;;;4971388;28;20026;-84
2022/04/10 09:41:26;;;;;;;8.02;4.75;;;8.40;1.00;;;;;;4972241;28;20043;-85
2022/04/10 09:43:52;;;;;;;6.78;4.97;;;8.50;1.00;;;;;;4972756;28;20599;-85
2022/04/10 09:46:18;;;;;;;6.97;4.75;;;8.70;1.00;;;;;;4972305;28;20444;-85
2022/04/10 09:48:43;;;;;;;8.45;4.70;;;8.80;1.00;;;;;;4971956;28;20026;-85
2022/04/10 09:51:11;;;;;;;6.32;4.55;;;9.10;1.00;;;;;;4971781;28;20082;-85
2022/04/10 09:53:37;;;;;;;5.10;3.90;;;9.40;1.00;;;;;;4971744;28;20037;-85
2022/04/10 09:56:06;;;;;;;6.00;4.13;;;9.20;1.00;;;;;;4972780;28;20058;-85
2022/04/10 09:58:32;;;;;;;5.10;3.75;;;9.40;1.00;;;;;;4972556;28;20475;-85
2022/04/10 10:00:59;;;;;;;4.60;3.60;;;9.40;1.00;;;;;;4971610;28;20035;-85
2022/04/10 10:03:28;;;;;;;5.00;3.92;;;9.50;1.00;;;;;;4971880;28;20395;-85
2022/04/10 10:05:55;;;;;;;7.85;3.92;;;9.70;1.00;;;;;;4971350;28;20026;-85
2022/04/10 10:08:22;;;;;;;5.57;3.50;;;9.90;1.00;;;;;;4972226;28;20026;-85
2022/04/10 10:10:48;;;;;;;5.55;4.10;;;10.90;1.00;;;;;;4972517;28;20053;-85
2022/04/10 10:13:14;;;;;;;3.95;3.55;;;11.90;1.00;;;;;;4954887;28;20026;-85
2022/04/10 10:15:41;;;;;;;5.00;4.10;;;12.50;1.00;;;;;;4971545;28;20038;-85
2022/04/10 10:18:09;;;;;;;4.70;4.10;;;13.10;1.00;;;;;;4971618;28;20054;-85
2022/04/10 10:20:36;;;;;;;5.20;3.72;;;13.70;1.00;;;;;;4971362;28;20027;-85
2022/04/10 10:23:07;;;;;;;4.45;3.60;;;14.20;1.00;;;;;;4972004;28;20037;-85
2022/04/10 10:25:41;;;;;;;3.85;2.90;;;14.50;1.00;;;;;;4972415;28;20086;-86
2022/04/10 10:28:07;;;;;;;4.13;3.20;;;14.00;1.00;;;;;;4971568;28;20035;-86
2022/04/10 10:30:38;;;;;;;5.00;3.80;;;15.00;1.00;;;;;;4971418;28;20555;-86
2022/04/10 10:33:24;;;;;;;2.72;2.53;;;16.10;1.00;;;;;;4971823;28;20046;-86
2022/04/10 10:35:56;;;;;;;4.55;4.15;;;16.40;1.00;;;;;;4972009;28;20085;-86
2022/04/10 10:38:26;;;;;;;2.25;2.05;;;16.70;1.00;;;;;;4975201;28;20082;-86
2022/04/10 10:41:12;;;;;;;3.95;2.65;;;16.70;1.00;;;;;;4975490;28;20058;-86
2022/04/10 10:43:38;;;;;;;4.18;3.45;;;16.60;1.00;;;;;;4960536;28;20371;-86
2022/04/10 10:46:23;;;;;;;3.08;2.70;;;18.00;1.00;;;;;;4975828;28;20031;-86
2022/04/10 10:49:10;;;;;;;3.38;2.80;;;17.90;1.00;;;;;;4975090;28;20023;-86
2022/04/10 10:51:35;;;;;;;4.80;3.85;;;18.20;1.00;;;;;;4974396;28;20023;-86
2022/04/10 10:54:03;;;;;;;3.55;3.25;;;18.20;1.00;;;;;;4974798;28;20047;-86
2022/04/10 10:56:33;;;;;;;3.80;3.50;;;19.00;1.00;;;;;;4975597;28;20027;-87
2022/04/10 10:59:27;;;;;;;3.28;2.83;;;19.00;1.00;;;;;;4974791;28;20039;-86
2022/04/10 11:02:02;;;;;;;2.33;2.13;;;19.70;1.00;;;;;;4975238;28;20030;-86
2022/04/10 11:04:32;;;;;;;2.25;1.50;;;20.30;1.00;;;;;;4974919;28;20038;-86
2022/04/10 11:07:12;;;;;;;7.10;6.40;;;20.00;1.00;;;;;;4974475;28;20038;-86
2022/04/10 11:09:51;;;;;;;2.83;1.80;;;20.60;1.00;;;;;;4974458;28;20038;-86
2022/04/10 11:12:22;;;;;;;3.00;2.78;;;20.60;1.00;;;;;;4973938;28;20078;-87
2022/04/10 11:14:51;;;;;;;2.10;1.83;;;21.00;1.00;;;;;;4975035;28;20043;-86
2022/04/10 11:17:21;;;;;;;1.80;1.70;;;21.10;1.00;;;;;;4959755;28;20253;-86
2022/04/10 11:19:49;;;;;;;1.95;1.60;;;21.20;1.00;;;;;;4970944;28;20499;-86
2022/04/10 11:22:23;;;;;;;1.88;1.70;;;22.20;1.00;;;;;;4974302;28;20431;-86
2022/04/10 11:24:52;;;;;;;5.38;3.85;;;21.80;1.00;;;;;;4974588;28;20101;-86
2022/04/10 11:27:54;;;;;;;3.13;2.83;;;22.20;1.00;;;;;;4974180;28;20459;-87
2022/04/10 11:30:52;;;;;;;2.42;2.17;;;21.90;1.00;;;;;;4891858;29;20037;-86
2022/04/10 11:33:18;;;;;;;2.92;2.33;;;22.20;1.00;;;;;;4880287;29;20081;-86
2022/04/10 11:35:53;;;;;;;3.67;1.70;;;22.10;1.00;;;;;;4884480;29;20127;-86
2022/04/10 11:38:19;;;;;;;1.52;1.40;;;22.50;1.00;;;;;;4881125;29;20025;-87
2022/04/10 11:40:50;;;;;;;1.92;1.35;;;21.30;1.00;;;;;;4892811;29;20071;-86
2022/04/10 11:43:17;;;;;;;1.65;1.23;;;22.30;1.00;;;;;;4890341;29;20072;-87
2022/04/10 11:45:44;;;;;;;1.88;1.60;;;22.20;1.00;;;;;;4888674;29;20037;-86
2022/04/10 11:48:11;;;;;;;2.67;1.40;;;21.80;1.00;;;;;;4884033;29;20045;-87
2022/04/10 11:50:38;;;;;;;1.30;1.20;;;21.80;1.00;;;;;;4883748;29;20040;-86
2022/04/10 11:53:04;;;;;;;1.63;1.33;;;22.90;1.00;;;;;;4880837;29;20179;-87
2022/04/10 11:55:30;;;;;;;1.95;1.27;;;24.20;1.00;;;;;;4883143;29;20453;-86
2022/04/10 11:57:56;;;;;;;2.20;1.20;;;24.40;1.00;;;;;;4873125;29;20032;-87
2022/04/10 12:00:22;;;;;;;2.10;1.48;;;25.10;1.00;;;;;;4891376;29;20043;-87
2022/04/10 12:02:53;;;;;;;5.10;4.55;;;25.90;1.00;;;;;;4884334;29;20029;-87
2022/04/10 12:05:19;;;;;;;1.45;1.35;;;25.70;1.00;;;;;;4896053;29;20192;-87
2022/04/10 12:07:45;;;;;;;2.95;2.67;;;26.00;1.00;;;;;;4922696;29;20040;-87
2022/04/10 12:10:16;;;;;;;5.72;5.22;;;26.50;1.00;;;;;;4954328;29;20027;-84
2022/04/10 12:12:43;;;;;;;3.50;1.50;;;26.00;1.00;;;;;;4954452;29;20033;-84
2022/04/10 12:15:19;;;;;;;1.63;1.23;;;26.90;1.00;;;;;;4954167;29;20050;-84
2022/04/10 12:17:46;;;;;;;1.75;1.30;;;27.70;1.00;;;;;;4953615;29;20033;-85
2022/04/10 12:20:11;;;;;;;1.40;1.20;;;27.70;1.00;;;;;;4954044;29;20044;-84
2022/04/10 12:22:37;;;;;;;2.17;1.23;;;28.30;1.00;;;;;;4954788;29;20039;-85
2022/04/10 12:25:04;;;;;;;1.58;1.10;;;26.20;1.00;;;;;;4954232;29;20563;-84
2022/04/10 12:27:29;;;;;;;1.85;1.52;;;26.10;1.00;;;;;;4954165;29;20019;-85
2022/04/10 12:29:56;;;;;;;7.40;6.70;;;26.60;1.00;;;;;;4953696;29;20452;-84
2022/04/10 12:32:23;;;;;;;2.13;1.40;;;26.70;1.00;;;;;;4953922;28;20094;-85
2022/04/10 12:34:49;;;;;;;3.92;3.63;;;26.60;1.00;;;;;;4954412;29;20042;-85
2022/04/10 12:37:17;;;;;;;3.22;2.92;;;26.60;1.00;;;;;;4954073;29;20114;-85
2022/04/10 12:39:49;;;;;;;1.60;1.13;;;26.20;1.00;;;;;;4953909;29;20019;-84
2022/04/10 12:42:22;;;;;;;2.85;1.70;;;26.70;1.00;;;;;;4971042;28;20035;-84
2022/04/10 12:44:57;;;;;;;2.90;1.38;;;26.60;1.00;;;;;;4972896;28;20035;-85
2022/04/10 12:47:42;;;;;;;4.18;3.20;;;26.80;1.00;;;;;;4958288;28;20074;-85
2022/04/10 12:50:10;;;;;;;2.30;1.75;;;26.80;1.00;;;;;;4972272;28;20440;-85
2022/04/10 12:52:39;;;;;;;1.60;1.50;;;26.20;1.00;;;;;;4973905;28;20023;-85
2022/04/10 12:55:16;;;;;;;3.00;1.48;;;25.70;1.00;;;;;;4972465;28;20120;-84
2022/04/10 12:57:43;;;;;;;3.53;1.60;;;25.10;1.00;;;;;;4972427;28;20027;-84
2022/04/10 13:00:23;;;;;;;4.50;4.20;;;24.90;1.00;;;;;;4972229;28;20030;-85
2022/04/10 13:02:49;;;;;;;6.30;5.70;;;23.70;1.00;;;;;;4972563;28;20030;-84
2022/04/10 13:05:16;;;;;;;1.95;1.50;;;23.70;1.00;;;;;;4972639;28;20031;-84
2022/04/10 13:07:59;;;;;;;4.88;4.47;;;24.10;1.00;;;;;;4973223;28;20392;-85
2022/04/10 13:10:26;;;;;;;1.77;1.65;;;24.40;1.00;;;;;;4972636;28;20054;-85
2022/04/10 13:13:06;;;;;;;1.83;1.60;;;24.30;1.00;;;;;;4972480;28;20054;-85